Time;durP1;ratioP1;P1;durP2;ratioP2;P2;SDS_P1;SDS_P2;PMS_P1;PMS_P2;Temp;Humidity;BMP_temperature;BMP_pressure;BME280_temperature;BME280_humidity;BME280_pressure;Samples;Min_cycle;Max_cycle;Signal;HPM_P1;HPM_P2
2024/04/23 04:07:28;;;;;;;0.40;0.40;;;2.70;99.90;;;;;;5510457;22;20297;-67
2024/04/23 04:09:53;;;;;;;0.40;0.40;;;2.70;99.90;;;;;;5276976;27;20234;-67
2024/04/23 04:12:19;;;;;;;0.40;0.40;;;2.60;99.90;;;;;;5277295;27;20227;-66
2024/04/23 04:14:45;;;;;;;0.40;0.40;;;2.70;99.90;;;;;;5276903;27;20264;-66
2024/04/23 04:17:10;;;;;;;0.43;0.43;;;2.70;99.90;;;;;;5275261;27;20236;-66
2024/04/23 04:19:36;;;;;;;0.40;0.40;;;2.80;99.90;;;;;;5278448;27;20265;-65
2024/04/23 04:22:02;;;;;;;0.40;0.40;;;2.80;99.90;;;;;;5280478;27;20218;-67
2024/04/23 04:24:28;;;;;;;0.40;0.40;;;2.80;99.90;;;;;;5280368;27;20712;-66
2024/04/23 04:26:53;;;;;;;0.40;0.40;;;2.70;99.90;;;;;;5280325;27;20226;-66
2024/04/23 04:29:19;;;;;;;0.30;0.30;;;2.70;99.90;;;;;;5280412;27;20226;-66
2024/04/23 04:31:44;;;;;;;0.40;0.40;;;2.60;99.90;;;;;;5280177;27;20350;-66
2024/04/23 04:34:10;;;;;;;0.40;0.40;;;2.60;99.90;;;;;;5280238;27;20747;-68
2024/04/23 04:36:35;;;;;;;0.40;0.40;;;2.60;99.90;;;;;;5276392;27;20278;-67
2024/04/23 04:39:01;;;;;;;0.50;0.50;;;2.60;99.90;;;;;;5279709;27;20223;-66
2024/04/23 04:41:29;;;;;;;0.40;0.40;;;2.70;99.90;;;;;;5280371;27;20329;-66
2024/04/23 04:43:55;;;;;;;0.40;0.40;;;2.70;99.90;;;;;;5280198;27;20223;-66
2024/04/23 04:46:20;;;;;;;0.40;0.40;;;2.80;99.90;;;;;;5277833;27;20343;-67
2024/04/23 04:48:46;;;;;;;0.40;0.40;;;3.00;99.90;;;;;;5280029;27;20219;-67
2024/04/23 04:51:13;;;;;;;0.40;0.40;;;3.30;99.90;;;;;;5278232;27;20231;-66
2024/04/23 04:53:38;;;;;;;0.43;0.43;;;3.60;99.90;;;;;;5279995;27;20286;-67
2024/04/23 04:56:04;;;;;;;0.47;0.47;;;3.80;99.90;;;;;;5279360;27;20577;-66
2024/04/23 04:58:30;;;;;;;0.40;0.40;;;4.00;99.90;;;;;;5279922;27;20555;-67
2024/04/23 05:00:55;;;;;;;0.40;0.40;;;4.10;99.90;;;;;;5280078;27;20215;-66
2024/04/23 05:03:21;;;;;;;0.30;0.30;;;4.10;99.90;;;;;;5279920;27;20263;-68
2024/04/23 05:05:47;;;;;;;0.37;0.37;;;4.20;99.90;;;;;;5278074;27;20675;-66
2024/04/23 05:08:12;;;;;;;0.30;0.30;;;4.40;99.90;;;;;;5277298;27;20350;-64
2024/04/23 05:10:41;;;;;;;0.30;0.30;;;4.50;99.90;;;;;;5296738;27;20772;-67
2024/04/23 05:13:07;;;;;;;0.52;0.52;;;4.60;99.90;;;;;;5276489;27;20234;-67
2024/04/23 05:15:33;;;;;;;0.40;0.40;;;4.60;99.90;;;;;;5298216;27;20926;-70
2024/04/23 05:17:58;;;;;;;0.70;0.70;;;4.70;99.90;;;;;;5312669;27;20350;-65
2024/04/23 05:20:26;;;;;;;0.40;0.40;;;4.70;99.90;;;;;;5312658;26;20281;-67
2024/04/23 05:22:52;;;;;;;0.30;0.30;;;4.80;99.90;;;;;;5314125;27;20257;-66
2024/04/23 05:25:17;;;;;;;0.30;0.30;;;5.20;99.90;;;;;;5294303;27;20234;-67
2024/04/23 05:27:43;;;;;;;0.40;0.40;;;5.50;99.90;;;;;;5297342;26;20331;-67
2024/04/23 05:30:18;;;;;;;0.30;0.30;;;5.80;99.90;;;;;;5313104;27;20234;-66
2024/04/23 05:32:47;;;;;;;0.30;0.30;;;6.10;99.90;;;;;;5292902;27;20345;-65
2024/04/23 05:35:13;;;;;;;0.40;0.40;;;6.20;99.90;;;;;;5277424;27;20215;-71
2024/04/23 05:37:38;;;;;;;0.30;0.30;;;6.30;99.90;;;;;;5278902;27;20600;-70
2024/04/23 05:40:05;;;;;;;0.30;0.30;;;6.40;99.90;;;;;;5278956;27;20580;-71
2024/04/23 05:42:31;;;;;;;0.40;0.40;;;6.70;99.90;;;;;;5279252;27;20222;-68
2024/04/23 05:44:57;;;;;;;0.30;0.30;;;6.90;99.90;;;;;;5278808;27;20211;-66
2024/04/23 05:47:22;;;;;;;0.30;0.30;;;7.10;99.90;;;;;;5277548;27;20602;-65
2024/04/23 05:50:25;;;;;;;0.30;0.30;;;7.20;99.90;;;;;;5279214;27;20254;-64
2024/04/23 05:53:28;;;;;;;0.40;0.40;;;7.40;99.90;;;;;;5279148;27;20231;-65
2024/04/23 05:55:54;;;;;;;0.30;0.30;;;7.60;99.90;;;;;;5288302;27;20713;-68
2024/04/23 05:58:19;;;;;;;0.40;0.40;;;7.70;99.20;;;;;;5313199;26;20494;-67
2024/04/23 06:00:45;;;;;;;0.30;0.30;;;7.60;99.30;;;;;;5310040;27;20274;-68
2024/04/23 06:03:11;;;;;;;0.93;0.87;;;7.40;98.50;;;;;;5282487;27;20560;-68
2024/04/23 06:05:36;;;;;;;0.63;0.63;;;7.40;99.30;;;;;;5300640;27;20295;-67
2024/04/23 06:08:05;;;;;;;0.77;0.77;;;7.40;98.90;;;;;;5311196;27;20234;-68
2024/04/23 06:10:30;;;;;;;0.40;0.40;;;7.20;98.70;;;;;;5313072;26;20260;-67
2024/04/23 06:12:56;;;;;;;0.30;0.30;;;7.10;99.10;;;;;;5312139;26;20695;-66
2024/04/23 06:15:22;;;;;;;0.40;0.40;;;7.20;99.60;;;;;;5310622;27;20233;-67
2024/04/23 06:17:48;;;;;;;0.40;0.40;;;7.40;98.90;;;;;;5309702;27;20272;-66
2024/04/23 06:20:14;;;;;;;0.30;0.30;;;7.50;98.30;;;;;;5309638;27;20229;-66
2024/04/23 06:22:40;;;;;;;0.30;0.30;;;7.70;98.10;;;;;;5311366;26;20234;-66
2024/04/23 06:25:07;;;;;;;0.30;0.30;;;7.80;97.70;;;;;;5311384;27;20334;-66
2024/04/23 06:27:34;;;;;;;0.30;0.20;;;7.80;97.20;;;;;;5311425;26;20227;-65
2024/04/23 06:30:04;;;;;;;0.57;0.57;;;7.80;96.80;;;;;;5311771;26;20230;-67
2024/04/23 06:32:29;;;;;;;0.30;0.30;;;7.80;97.20;;;;;;5313087;27;20219;-67
2024/04/23 06:34:55;;;;;;;0.40;0.40;;;7.60;96.90;;;;;;5312407;27;20255;-66
2024/04/23 06:37:20;;;;;;;0.30;0.30;;;7.30;97.30;;;;;;5312488;27;20235;-66
2024/04/23 06:39:46;;;;;;;0.40;0.40;;;7.50;98.60;;;;;;5312586;27;20263;-66
2024/04/23 06:42:11;;;;;;;1.60;1.50;;;7.80;98.10;;;;;;5311628;26;20261;-67
2024/04/23 06:44:37;;;;;;;0.50;0.50;;;8.00;96.90;;;;;;5312134;27;20680;-67
2024/04/23 06:47:03;;;;;;;0.30;0.30;;;8.30;97.90;;;;;;5312435;26;20266;-67
2024/04/23 06:49:29;;;;;;;0.30;0.30;;;8.60;97.10;;;;;;5312292;26;20264;-67
2024/04/23 06:51:55;;;;;;;0.30;0.30;;;8.60;94.60;;;;;;5312480;27;20295;-67
2024/04/23 06:54:21;;;;;;;0.30;0.30;;;8.70;94.90;;;;;;5312443;27;20678;-66
2024/04/23 06:56:48;;;;;;;0.30;0.30;;;9.00;94.80;;;;;;5312491;26;20570;-66
2024/04/23 06:59:14;;;;;;;0.30;0.30;;;9.20;94.00;;;;;;5312213;26;20467;-67
2024/04/23 07:01:41;;;;;;;0.30;0.30;;;9.40;94.10;;;;;;5310548;26;20464;-67
2024/04/23 07:04:07;;;;;;;0.30;0.30;;;9.40;93.30;;;;;;5312132;27;20519;-67
2024/04/23 07:06:33;;;;;;;0.30;0.30;;;9.30;93.30;;;;;;5311872;26;20516;-67
2024/04/23 07:08:59;;;;;;;0.77;0.77;;;9.50;93.20;;;;;;5312249;26;20468;-66
2024/04/23 07:11:25;;;;;;;0.30;0.30;;;9.60;93.60;;;;;;5312031;27;20471;-67
2024/04/23 07:13:50;;;;;;;0.40;0.40;;;9.70;93.00;;;;;;5311844;26;20552;-68
2024/04/23 07:16:16;;;;;;;0.30;0.30;;;9.90;93.10;;;;;;5311667;27;20330;-68
2024/04/23 07:18:42;;;;;;;0.30;0.30;;;10.10;92.60;;;;;;5311919;27;20230;-68
2024/04/23 07:21:08;;;;;;;0.80;0.80;;;10.40;91.00;;;;;;5312789;27;20226;-68
2024/04/23 07:23:35;;;;;;;0.60;0.60;;;10.60;90.10;;;;;;5312032;26;20421;-68
2024/04/23 07:26:01;;;;;;;0.30;0.20;;;10.70;89.10;;;;;;5311367;27;20437;-68
2024/04/23 07:28:26;;;;;;;0.30;0.30;;;10.90;88.60;;;;;;5311935;26;20454;-69
2024/04/23 07:30:52;;;;;;;0.37;0.37;;;11.20;88.00;;;;;;5311917;27;20267;-68
2024/04/23 07:33:19;;;;;;;0.43;0.43;;;11.30;85.70;;;;;;5311690;26;20229;-68
2024/04/23 07:35:45;;;;;;;0.30;0.30;;;11.80;86.20;;;;;;5311339;27;20525;-69
2024/04/23 07:38:11;;;;;;;0.30;0.30;;;12.10;84.00;;;;;;5311516;27;20449;-69
2024/04/23 07:40:38;;;;;;;0.30;0.20;;;12.80;82.00;;;;;;5311634;27;20520;-69
2024/04/23 07:43:03;;;;;;;0.93;0.93;;;13.20;80.00;;;;;;5311416;26;20497;-69
2024/04/23 07:45:33;;;;;;;0.37;0.37;;;13.90;82.10;;;;;;5311270;27;20445;-69
2024/04/23 07:47:59;;;;;;;0.57;0.57;;;14.40;78.20;;;;;;5311681;27;20266;-68
2024/04/23 07:50:25;;;;;;;0.30;0.20;;;14.50;76.50;;;;;;5311622;27;20812;-68
2024/04/23 07:52:50;;;;;;;0.30;0.20;;;15.10;76.20;;;;;;5311699;26;20420;-68
2024/04/23 07:55:16;;;;;;;0.40;0.33;;;15.80;72.90;;;;;;5314249;26;20226;-69
2024/04/23 07:57:51;;;;;;;0.33;0.33;;;16.50;72.30;;;;;;5314207;26;20231;-68
2024/04/23 08:00:18;;;;;;;0.30;0.30;;;17.10;70.80;;;;;;5314439;27;20278;-67
2024/04/23 08:02:44;;;;;;;0.33;0.33;;;17.80;68.30;;;;;;5314411;27;20791;-69
2024/04/23 08:05:10;;;;;;;0.30;0.20;;;18.00;66.70;;;;;;5312630;27;20465;-68
2024/04/23 08:07:35;;;;;;;0.70;0.70;;;17.90;65.70;;;;;;5314355;27;20230;-69
2024/04/23 08:10:01;;;;;;;0.57;0.40;;;17.70;64.50;;;;;;5314455;26;20547;-69
2024/04/23 08:12:27;;;;;;;0.30;0.30;;;17.90;64.80;;;;;;5314372;27;20266;-68
2024/04/23 08:14:53;;;;;;;0.30;0.30;;;18.30;63.50;;;;;;5314150;27;20230;-68
2024/04/23 08:17:22;;;;;;;0.40;0.40;;;18.60;63.10;;;;;;5314327;26;20710;-68
2024/04/23 08:19:48;;;;;;;0.60;0.60;;;18.70;62.30;;;;;;5314499;27;20693;-70
2024/04/23 08:22:13;;;;;;;0.30;0.20;;;19.00;62.80;;;;;;5312835;26;20433;-68
2024/04/23 08:24:39;;;;;;;0.50;0.50;;;19.50;61.30;;;;;;5313950;26;20473;-68
2024/04/23 08:27:05;;;;;;;0.40;0.40;;;19.60;60.20;;;;;;5314145;27;20229;-68
2024/04/23 08:29:31;;;;;;;0.40;0.40;;;19.80;59.40;;;;;;5314349;26;20222;-68
2024/04/23 08:31:57;;;;;;;0.73;0.73;;;20.20;59.30;;;;;;5314406;27;20233;-69
2024/04/23 08:34:23;;;;;;;1.10;1.10;;;20.00;58.70;;;;;;5314369;27;20500;-69
2024/04/23 08:36:50;;;;;;;0.50;0.50;;;20.00;60.40;;;;;;5313773;26;20943;-69
2024/04/23 08:39:15;;;;;;;0.30;0.30;;;20.00;61.50;;;;;;5313926;27;20704;-68
2024/04/23 08:41:41;;;;;;;1.10;0.80;;;19.80;59.10;;;;;;5314097;27;20464;-67
2024/04/23 08:44:11;;;;;;;0.47;0.47;;;20.10;59.20;;;;;;5314003;27;20737;-68
2024/04/23 08:46:39;;;;;;;0.50;0.50;;;20.50;57.80;;;;;;5313619;27;20476;-68
2024/04/23 08:49:06;;;;;;;0.30;0.30;;;19.80;57.00;;;;;;5314202;26;20440;-68
2024/04/23 08:51:33;;;;;;;0.40;0.40;;;20.10;58.10;;;;;;5314161;26;20785;-68
2024/04/23 08:54:04;;;;;;;0.80;0.50;;;20.20;56.10;;;;;;5313980;26;20453;-68
2024/04/23 08:56:31;;;;;;;1.27;0.40;;;19.90;56.30;;;;;;5313767;26;20562;-68
2024/04/23 08:58:57;;;;;;;1.63;0.80;;;20.00;56.60;;;;;;5312189;27;20429;-68
2024/04/23 09:01:36;;;;;;;1.33;0.40;;;20.10;56.20;;;;;;5314243;27;20561;-69
2024/04/23 09:04:06;;;;;;;0.30;0.30;;;20.30;56.40;;;;;;5314044;27;21006;-68
2024/04/23 09:06:36;;;;;;;0.40;0.40;;;20.50;56.20;;;;;;5313009;27;20908;-68
2024/04/23 09:09:02;;;;;;;0.30;0.20;;;20.60;56.00;;;;;;5314376;27;20444;-67
2024/04/23 09:11:31;;;;;;;0.30;0.30;;;20.10;55.30;;;;;;5313922;26;20804;-67
2024/04/23 09:13:57;;;;;;;0.30;0.30;;;20.00;55.80;;;;;;5314109;27;20425;-67
2024/04/23 09:16:23;;;;;;;0.40;0.40;;;20.40;55.70;;;;;;5313775;27;20772;-68
2024/04/23 09:18:49;;;;;;;0.47;0.30;;;20.50;53.60;;;;;;5313956;27;20524;-66
2024/04/23 09:21:15;;;;;;;0.40;0.40;;;20.20;54.40;;;;;;5313855;27;20217;-66
2024/04/23 09:23:44;;;;;;;0.30;0.20;;;20.20;54.90;;;;;;5313765;26;20515;-67
2024/04/23 09:26:10;;;;;;;0.60;0.60;;;20.30;56.00;;;;;;5314087;26;20433;-67
2024/04/23 09:28:39;;;;;;;0.40;0.40;;;20.70;55.10;;;;;;5313836;27;20574;-69
2024/04/23 09:31:06;;;;;;;0.30;0.20;;;20.60;53.70;;;;;;5313651;26;20508;-69
2024/04/23 09:33:32;;;;;;;1.00;0.47;;;19.60;52.30;;;;;;5313689;26;20481;-68
2024/04/23 09:36:01;;;;;;;0.50;0.50;;;19.00;54.00;;;;;;5313880;27;20473;-67
2024/04/23 09:38:32;;;;;;;0.40;0.40;;;18.70;55.30;;;;;;5313691;26;20419;-69
2024/04/23 09:40:58;;;;;;;0.40;0.40;;;18.60;57.00;;;;;;5313652;27;20444;-68
2024/04/23 09:43:24;;;;;;;0.30;0.20;;;18.60;55.70;;;;;;5313487;27;20535;-68
2024/04/23 09:45:50;;;;;;;0.30;0.30;;;19.20;54.40;;;;;;5313281;26;20238;-68
2024/04/23 09:48:16;;;;;;;0.63;0.50;;;19.50;53.20;;;;;;5313618;26;20285;-68
2024/04/23 09:50:41;;;;;;;0.37;0.37;;;19.70;52.20;;;;;;5313531;26;20421;-67
2024/04/23 09:53:12;;;;;;;0.37;0.37;;;19.40;51.40;;;;;;5313388;26;20261;-69
2024/04/23 09:55:37;;;;;;;0.60;0.60;;;18.70;51.80;;;;;;5313060;26;20276;-67
2024/04/23 09:58:03;;;;;;;0.30;0.30;;;18.40;51.80;;;;;;5313334;26;20422;-68
2024/04/23 10:00:30;;;;;;;0.50;0.50;;;17.80;52.10;;;;;;5313092;26;20272;-69
2024/04/23 10:03:06;;;;;;;0.47;0.40;;;17.30;54.10;;;;;;5313135;26;20307;-69
2024/04/23 10:05:36;;;;;;;0.30;0.30;;;17.00;55.50;;;;;;5312613;26;20954;-65
2024/04/23 10:08:11;;;;;;;0.30;0.30;;;17.00;55.70;;;;;;5312859;27;20799;-67
2024/04/23 10:10:47;;;;;;;0.30;0.30;;;17.20;54.60;;;;;;5313156;26;20500;-67
2024/04/23 10:13:21;;;;;;;0.30;0.20;;;17.30;54.80;;;;;;5313025;27;20793;-68
2024/04/23 10:16:01;;;;;;;0.30;0.30;;;17.50;53.60;;;;;;5312254;26;20871;-68
2024/04/23 10:18:38;;;;;;;0.33;0.33;;;18.00;53.80;;;;;;5312172;27;20484;-67
2024/04/23 10:21:08;;;;;;;0.97;0.43;;;18.20;52.70;;;;;;5312941;26;20459;-66
2024/04/23 10:23:35;;;;;;;0.30;0.30;;;18.30;53.30;;;;;;5312557;27;20752;-67
2024/04/23 10:26:02;;;;;;;0.60;0.60;;;18.10;53.10;;;;;;5312328;27;21036;-67
2024/04/23 10:28:27;;;;;;;0.30;0.20;;;18.40;54.00;;;;;;5312445;27;20537;-67
2024/04/23 10:30:54;;;;;;;0.40;0.40;;;18.90;53.50;;;;;;5312714;27;20448;-67
2024/04/23 10:33:20;;;;;;;0.80;0.70;;;19.20;53.30;;;;;;5312705;27;20489;-68
2024/04/23 10:35:47;;;;;;;0.30;0.30;;;19.40;52.00;;;;;;5312985;26;20522;-70
2024/04/23 10:38:16;;;;;;;0.40;0.40;;;19.60;51.90;;;;;;5310804;26;20552;-68
2024/04/23 10:40:47;;;;;;;0.30;0.30;;;19.60;52.70;;;;;;5312528;27;20565;-70
2024/04/23 10:43:16;;;;;;;0.60;0.57;;;20.00;52.70;;;;;;5312561;27;20417;-68
2024/04/23 10:45:42;;;;;;;0.40;0.40;;;19.80;52.40;;;;;;5312127;27;20664;-68
2024/04/23 10:48:08;;;;;;;0.30;0.30;;;19.20;52.70;;;;;;5312782;26;20432;-68
2024/04/23 10:50:34;;;;;;;0.93;0.50;;;18.80;52.50;;;;;;5312344;27;20760;-67
2024/04/23 10:53:03;;;;;;;0.30;0.30;;;18.50;54.00;;;;;;5312200;26;20445;-69
2024/04/23 10:55:30;;;;;;;0.30;0.30;;;18.00;53.20;;;;;;5311912;27;20505;-68
2024/04/23 10:57:56;;;;;;;0.30;0.30;;;17.20;54.20;;;;;;5312621;27;20478;-68
2024/04/23 11:00:35;;;;;;;0.40;0.40;;;16.70;55.70;;;;;;5312305;26;20452;-68
2024/04/23 11:03:12;;;;;;;0.30;0.27;;;16.90;56.60;;;;;;5312827;27;20563;-68
2024/04/23 11:05:45;;;;;;;0.63;0.63;;;17.40;54.30;;;;;;5311906;27;20514;-68
2024/04/23 11:08:30;;;;;;;0.30;0.30;;;17.00;54.00;;;;;;5312075;26;20464;-67
2024/04/23 11:11:07;;;;;;;0.33;0.30;;;16.30;54.10;;;;;;5312312;26;20480;-66
2024/04/23 11:13:43;;;;;;;0.30;0.30;;;15.50;54.80;;;;;;5312182;27;20557;-66
2024/04/23 11:16:15;;;;;;;0.30;0.30;;;14.70;55.90;;;;;;5312116;26;20795;-65
2024/04/23 11:18:43;;;;;;;0.30;0.30;;;14.10;55.50;;;;;;5312099;27;20497;-66
2024/04/23 11:21:09;;;;;;;0.30;0.30;;;13.60;55.70;;;;;;5312123;27;20497;-66
2024/04/23 11:23:40;;;;;;;0.30;0.30;;;13.20;56.90;;;;;;5311982;27;20502;-67
2024/04/23 11:26:09;;;;;;;0.30;0.30;;;13.00;57.10;;;;;;5281532;27;20576;-66
2024/04/23 11:28:38;;;;;;;0.30;0.30;;;13.00;57.90;;;;;;5311423;26;20490;-68
2024/04/23 11:31:05;;;;;;;0.30;0.30;;;13.00;58.60;;;;;;5313344;27;20463;-68
2024/04/23 11:33:31;;;;;;;0.30;0.30;;;13.20;59.30;;;;;;5315015;26;20501;-67
2024/04/23 11:35:58;;;;;;;0.30;0.30;;;13.40;58.40;;;;;;5314487;27;20458;-68
2024/04/23 11:38:23;;;;;;;0.30;0.30;;;13.50;58.50;;;;;;5315016;27;20533;-67
2024/04/23 11:41:04;;;;;;;0.30;0.30;;;13.40;58.40;;;;;;5314846;27;20425;-67
2024/04/23 11:43:30;;;;;;;0.40;0.40;;;13.10;58.90;;;;;;5314869;27;20444;-67
2024/04/23 11:45:55;;;;;;;0.40;0.40;;;12.80;59.40;;;;;;5314734;26;20480;-67
2024/04/23 11:48:21;;;;;;;0.30;0.30;;;12.60;59.40;;;;;;5315952;27;20672;-67
2024/04/23 11:50:47;;;;;;;0.30;0.30;;;12.50;59.70;;;;;;5314756;27;20214;-66
2024/04/23 11:53:13;;;;;;;0.30;0.30;;;12.30;60.20;;;;;;5314810;26;20229;-66
2024/04/23 11:55:42;;;;;;;0.30;0.30;;;12.30;63.90;;;;;;5314321;26;20252;-68
2024/04/23 11:58:07;;;;;;;0.30;0.30;;;12.20;63.80;;;;;;5314572;27;20521;-66
2024/04/23 12:00:33;;;;;;;0.40;0.40;;;12.20;62.70;;;;;;5314764;27;20416;-66
2024/04/23 12:02:58;;;;;;;0.40;0.40;;;12.30;64.00;;;;;;5314310;26;20268;-69
2024/04/23 12:05:26;;;;;;;0.30;0.30;;;12.40;61.30;;;;;;5314293;27;20578;-66
2024/04/23 12:07:52;;;;;;;0.30;0.30;;;12.40;61.60;;;;;;5314644;27;20237;-67
2024/04/23 12:10:32;;;;;;;1.07;0.43;;;12.40;61.20;;;;;;5314699;26;20747;-67
2024/04/23 12:12:58;;;;;;;0.30;0.30;;;12.80;63.20;;;;;;5314567;26;20572;-66
2024/04/23 12:15:25;;;;;;;0.30;0.30;;;13.10;61.20;;;;;;5314387;26;20446;-66
2024/04/23 12:17:51;;;;;;;0.30;0.30;;;13.20;61.20;;;;;;5314461;27;20509;-68
2024/04/23 12:20:17;;;;;;;0.30;0.30;;;13.20;60.90;;;;;;5314543;27;20448;-68
2024/04/23 12:22:44;;;;;;;0.30;0.30;;;13.30;60.50;;;;;;5314575;26;20500;-68
2024/04/23 12:25:11;;;;;;;0.30;0.30;;;13.40;59.70;;;;;;5314179;27;20536;-67
2024/04/23 12:27:37;;;;;;;0.30;0.30;;;13.30;60.80;;;;;;5314153;26;20433;-68
2024/04/23 12:30:10;;;;;;;0.30;0.30;;;13.20;62.80;;;;;;5314517;26;20580;-67
2024/04/23 12:32:40;;;;;;;0.30;0.30;;;13.10;62.30;;;;;;5314389;26;20540;-66
2024/04/23 12:35:06;;;;;;;0.30;0.30;;;13.20;62.40;;;;;;5312249;27;20453;-67
2024/04/23 12:37:32;;;;;;;0.30;0.30;;;13.40;62.60;;;;;;5312593;26;20468;-67
2024/04/23 12:39:58;;;;;;;0.70;0.50;;;13.30;61.00;;;;;;5313412;26;20954;-67
2024/04/23 12:42:26;;;;;;;0.30;0.30;;;13.10;63.30;;;;;;5314423;26;20218;-68
2024/04/23 12:44:52;;;;;;;0.30;0.30;;;12.90;62.90;;;;;;5314120;26;20222;-67
2024/04/23 12:47:18;;;;;;;0.30;0.30;;;12.70;65.30;;;;;;5313929;27;20524;-67
2024/04/23 12:49:43;;;;;;;0.30;0.30;;;12.60;64.60;;;;;;5313934;26;20962;-67
2024/04/23 12:52:09;;;;;;;0.60;0.60;;;12.70;67.00;;;;;;5313530;27;20228;-67
2024/04/23 12:54:34;;;;;;;0.30;0.30;;;12.70;67.00;;;;;;5313432;26;20301;-66
2024/04/23 12:57:00;;;;;;;0.50;0.50;;;12.60;65.80;;;;;;5313537;26;20415;-67
2024/04/23 12:59:26;;;;;;;0.50;0.50;;;12.60;66.40;;;;;;5314169;27;20234;-66
2024/04/23 13:01:51;;;;;;;0.30;0.30;;;12.60;66.90;;;;;;5313820;27;20342;-65
2024/04/23 13:04:17;;;;;;;0.30;0.20;;;12.50;67.10;;;;;;5313836;26;20704;-68
2024/04/23 13:06:43;;;;;;;0.40;0.40;;;12.30;68.90;;;;;;5313306;26;20225;-67
2024/04/23 13:09:09;;;;;;;0.30;0.20;;;12.20;69.10;;;;;;5313847;27;20778;-67
2024/04/23 13:11:34;;;;;;;0.80;0.80;;;12.20;66.70;;;;;;5313914;27;20213;-65
2024/04/23 13:14:00;;;;;;;0.70;0.63;;;12.30;66.00;;;;;;5313588;26;20545;-67
2024/04/23 13:16:25;;;;;;;0.30;0.20;;;12.40;65.20;;;;;;5313476;27;20739;-65
2024/04/23 13:18:51;;;;;;;0.30;0.30;;;12.60;64.70;;;;;;5313741;27;20329;-67
2024/04/23 13:21:16;;;;;;;0.30;0.30;;;12.70;63.80;;;;;;5311717;27;20247;-66
2024/04/23 13:23:42;;;;;;;0.30;0.30;;;12.80;62.60;;;;;;5313809;26;20232;-67
2024/04/23 13:26:08;;;;;;;0.30;0.30;;;12.70;63.60;;;;;;5313312;27;20804;-65
2024/04/23 13:28:34;;;;;;;0.30;0.30;;;12.60;63.30;;;;;;5313358;26;20228;-66
2024/04/23 13:31:00;;;;;;;0.30;0.30;;;12.60;64.80;;;;;;5311598;27;20718;-67
2024/04/23 13:33:25;;;;;;;0.30;0.30;;;12.60;67.50;;;;;;5313864;26;20444;-64
2024/04/23 13:35:51;;;;;;;0.30;0.30;;;12.60;67.70;;;;;;5313282;27;20719;-67
2024/04/23 13:38:17;;;;;;;0.30;0.30;;;12.70;67.60;;;;;;5313823;26;20226;-67
2024/04/23 13:40:42;;;;;;;0.30;0.30;;;12.70;67.50;;;;;;5313456;27;20234;-66
2024/04/23 13:43:08;;;;;;;0.30;0.30;;;12.60;67.80;;;;;;5311545;27;20629;-67
2024/04/23 13:45:34;;;;;;;0.30;0.30;;;12.50;67.30;;;;;;5311373;26;20288;-66
2024/04/23 13:48:00;;;;;;;0.40;0.40;;;12.30;67.40;;;;;;5312761;26;20731;-65
2024/04/23 13:50:26;;;;;;;0.30;0.30;;;12.30;67.80;;;;;;5313083;27;20445;-66
2024/04/23 13:52:52;;;;;;;0.30;0.30;;;12.20;70.10;;;;;;5313121;27;20259;-65
2024/04/23 13:55:19;;;;;;;0.30;0.30;;;12.20;70.50;;;;;;5312833;27;20263;-67
2024/04/23 13:57:44;;;;;;;0.30;0.30;;;12.10;68.40;;;;;;5310208;27;20582;-65
2024/04/23 14:00:10;;;;;;;0.30;0.30;;;12.00;69.40;;;;;;5310080;27;20457;-64
2024/04/23 14:02:36;;;;;;;0.30;0.30;;;11.90;67.20;;;;;;5311063;27;20218;-67
2024/04/23 14:05:03;;;;;;;0.30;0.30;;;11.70;68.50;;;;;;5309246;27;20827;-68
2024/04/23 14:07:28;;;;;;;0.30;0.30;;;11.60;68.40;;;;;;5311149;27;20237;-67
2024/04/23 14:09:54;;;;;;;0.30;0.30;;;11.50;68.70;;;;;;5311291;26;20554;-69
2024/04/23 14:12:20;;;;;;;0.30;0.30;;;11.40;69.20;;;;;;5312574;26;20698;-65
2024/04/23 14:14:45;;;;;;;0.40;0.40;;;11.30;71.00;;;;;;5312664;27;20607;-65
2024/04/23 14:17:11;;;;;;;0.30;0.30;;;11.30;69.70;;;;;;5312853;27;20236;-65
2024/04/23 14:19:36;;;;;;;0.30;0.30;;;11.30;69.40;;;;;;5313474;26;20216;-68
2024/04/23 14:22:03;;;;;;;0.47;0.40;;;11.20;70.00;;;;;;5313034;27;20228;-66
2024/04/23 14:24:29;;;;;;;0.50;0.50;;;11.30;72.10;;;;;;5312745;26;20224;-68
2024/04/23 14:26:59;;;;;;;0.43;0.43;;;11.30;72.00;;;;;;5312811;27;20463;-66
2024/04/23 14:29:25;;;;;;;0.30;0.30;;;11.30;71.80;;;;;;5313445;27;20447;-67
2024/04/23 14:31:50;;;;;;;0.30;0.30;;;11.20;71.00;;;;;;5313054;27;20507;-66
2024/04/23 14:34:19;;;;;;;0.40;0.40;;;11.10;71.40;;;;;;5311059;26;20462;-65
2024/04/23 14:36:47;;;;;;;0.30;0.20;;;11.10;72.00;;;;;;5312404;27;20237;-66
2024/04/23 14:39:12;;;;;;;0.40;0.40;;;11.10;72.90;;;;;;5313609;26;20440;-66
2024/04/23 14:41:38;;;;;;;0.30;0.30;;;11.10;73.40;;;;;;5310711;27;20501;-67
2024/04/23 14:44:03;;;;;;;0.30;0.30;;;11.10;72.90;;;;;;5310676;27;20219;-66
2024/04/23 14:46:29;;;;;;;0.30;0.30;;;11.10;73.10;;;;;;5312367;27;20556;-68
2024/04/23 14:48:54;;;;;;;0.30;0.27;;;11.10;71.60;;;;;;5312731;27;20232;-66
2024/04/23 14:51:20;;;;;;;0.30;0.30;;;11.10;71.90;;;;;;5312658;27;20228;-66
2024/04/23 14:53:46;;;;;;;0.30;0.30;;;11.10;71.60;;;;;;5312614;26;20331;-68
2024/04/23 14:56:15;;;;;;;0.30;0.30;;;11.10;71.60;;;;;;5312080;27;20710;-67
2024/04/23 14:58:44;;;;;;;0.30;0.30;;;11.10;71.20;;;;;;5312533;27;20230;-67
2024/04/23 15:01:13;;;;;;;0.30;0.20;;;11.10;71.70;;;;;;5312297;27;20441;-66
2024/04/23 15:03:39;;;;;;;0.70;0.70;;;11.10;71.70;;;;;;5311526;26;20447;-67
2024/04/23 15:06:08;;;;;;;0.30;0.30;;;11.10;70.90;;;;;;5312186;27;20567;-68
2024/04/23 15:08:36;;;;;;;0.60;0.60;;;11.10;71.30;;;;;;5312645;26;20572;-67
2024/04/23 15:11:04;;;;;;;0.40;0.40;;;11.10;71.10;;;;;;5282369;27;20797;-67
2024/04/23 15:13:30;;;;;;;0.30;0.30;;;11.10;70.80;;;;;;5312355;26;20526;-65
2024/04/23 15:16:02;;;;;;;0.30;0.20;;;11.00;72.10;;;;;;5312194;26;20508;-66
2024/04/23 15:18:39;;;;;;;0.30;0.20;;;11.10;71.60;;;;;;5312264;27;20841;-65
2024/04/23 15:21:07;;;;;;;0.30;0.30;;;11.10;71.10;;;;;;5312482;26;20968;-66
2024/04/23 15:23:33;;;;;;;0.30;0.30;;;11.10;71.30;;;;;;5312016;27;21060;-64
2024/04/23 15:25:59;;;;;;;0.30;0.30;;;11.20;70.00;;;;;;5311788;27;20460;-67
2024/04/23 15:28:26;;;;;;;0.60;0.60;;;11.20;69.70;;;;;;5312086;26;20569;-67
2024/04/23 15:30:51;;;;;;;0.30;0.30;;;11.10;70.40;;;;;;5312262;27;20446;-65
2024/04/23 15:33:17;;;;;;;0.53;0.53;;;11.10;70.50;;;;;;5312135;26;20574;-64
2024/04/23 15:35:43;;;;;;;0.30;0.30;;;11.00;71.30;;;;;;5311425;26;20224;-65
2024/04/23 15:38:09;;;;;;;0.50;0.50;;;10.90;71.20;;;;;;5310284;26;20459;-66
2024/04/23 15:40:34;;;;;;;1.00;1.00;;;10.90;72.70;;;;;;5312055;27;20221;-66
2024/04/23 15:43:00;;;;;;;0.40;0.40;;;10.80;72.30;;;;;;5311793;27;20230;-67
2024/04/23 15:45:26;;;;;;;0.40;0.40;;;10.80;72.80;;;;;;5311508;27;20291;-67
2024/04/23 15:47:53;;;;;;;0.83;0.80;;;10.80;72.70;;;;;;5311986;26;20226;-65
2024/04/23 15:50:20;;;;;;;0.30;0.30;;;10.80;73.60;;;;;;5311645;26;20218;-67
2024/04/23 15:52:46;;;;;;;0.30;0.30;;;10.80;74.10;;;;;;5309906;26;20461;-66
2024/04/23 15:55:11;;;;;;;1.00;0.97;;;10.80;74.20;;;;;;5311542;27;21015;-63
2024/04/23 15:57:37;;;;;;;0.30;0.30;;;10.90;72.70;;;;;;5311745;27;20270;-66
2024/04/23 16:00:04;;;;;;;0.30;0.30;;;10.90;73.80;;;;;;5311405;26;20775;-65
2024/04/23 16:02:31;;;;;;;0.40;0.40;;;10.80;72.60;;;;;;5311517;27;20454;-66
2024/04/23 16:05:00;;;;;;;1.40;0.88;;;10.90;71.60;;;;;;5311131;27;20440;-68
2024/04/23 16:07:27;;;;;;;0.63;0.63;;;10.80;71.20;;;;;;5311306;26;20230;-66
2024/04/23 16:09:53;;;;;;;0.40;0.40;;;10.80;71.90;;;;;;5311587;26;20231;-66
2024/04/23 16:12:19;;;;;;;1.33;1.03;;;10.80;72.50;;;;;;5309675;26;20448;-66
2024/04/23 16:14:44;;;;;;;0.30;0.30;;;10.80;72.50;;;;;;5312778;27;20836;-66
2024/04/23 16:17:10;;;;;;;0.40;0.40;;;10.80;71.90;;;;;;5314186;26;20237;-68
2024/04/23 16:19:36;;;;;;;0.30;0.30;;;10.70;72.30;;;;;;5314344;27;20750;-67
2024/04/23 16:22:04;;;;;;;0.30;0.30;;;10.70;71.60;;;;;;5314138;27;20333;-66
2024/04/23 16:24:30;;;;;;;0.30;0.30;;;10.70;72.00;;;;;;5312567;27;20241;-66
2024/04/23 16:26:56;;;;;;;0.30;0.30;;;10.60;70.50;;;;;;5313896;26;20238;-67
2024/04/23 16:29:21;;;;;;;0.30;0.30;;;10.60;70.50;;;;;;5314563;27;20264;-66
2024/04/23 16:31:47;;;;;;;0.30;0.30;;;10.60;70.50;;;;;;5312821;26;20791;-66
2024/04/23 16:34:15;;;;;;;0.30;0.30;;;10.50;70.80;;;;;;5314490;26;20222;-62
2024/04/23 16:36:41;;;;;;;0.30;0.30;;;10.50;72.90;;;;;;5314486;27;20318;-67
2024/04/23 16:39:06;;;;;;;0.30;0.30;;;10.50;74.30;;;;;;5314510;26;20448;-64
2024/04/23 16:41:32;;;;;;;0.30;0.30;;;10.50;73.10;;;;;;5308977;27;20227;-70
2024/04/23 16:43:57;;;;;;;0.30;0.30;;;10.50;75.00;;;;;;5296737;27;20227;-65
2024/04/23 16:46:24;;;;;;;0.30;0.20;;;10.50;75.40;;;;;;5309219;27;20281;-65
2024/04/23 16:48:50;;;;;;;0.30;0.30;;;10.60;73.40;;;;;;5310571;26;20613;-68
2024/04/23 16:51:15;;;;;;;0.30;0.30;;;10.50;72.90;;;;;;5280388;27;20263;-68
2024/04/23 16:53:41;;;;;;;0.30;0.30;;;10.50;72.10;;;;;;5278037;27;20242;-68
2024/04/23 16:56:10;;;;;;;0.30;0.30;;;10.50;72.40;;;;;;5279143;27;20231;-68